sensor_id;sensor_type;location;lat;lon;timestamp;pressure;altitude;pressure_sealevel;temperature;humidity
52291;BME280;39663;45.432;28.050;2023-08-06T00:07:06;100134.32;;;26.20;52.62
52291;BME280;39663;45.432;28.050;2023-08-06T00:07:38;100137.70;;;26.08;52.69
52291;BME280;39663;45.432;28.050;2023-08-06T00:08:09;100133.22;;;26.12;52.43
52291;BME280;39663;45.432;28.050;2023-08-06T00:08:41;100134.35;;;26.24;53.08
52291;BME280;39663;45.432;28.050;2023-08-06T00:09:12;100133.08;;;26.23;52.70
52291;BME280;39663;45.432;28.050;2023-08-06T00:09:43;100135.03;;;25.82;53.11
52291;BME280;39663;45.432;28.050;2023-08-06T00:10:15;100135.08;;;25.83;53.02
52291;BME280;39663;45.432;28.050;2023-08-06T00:10:48;100133.57;;;25.99;53.23
52291;BME280;39663;45.432;28.050;2023-08-06T00:11:19;100133.78;;;26.21;52.72
52291;BME280;39663;45.432;28.050;2023-08-06T00:11:50;100131.56;;;26.32;52.41
52291;BME280;39663;45.432;28.050;2023-08-06T00:12:22;100129.43;;;25.90;52.82
52291;BME280;39663;45.432;28.050;2023-08-06T00:12:54;100131.14;;;25.91;53.23
52291;BME280;39663;45.432;28.050;2023-08-06T00:13:25;100131.15;;;26.00;53.21
52291;BME280;39663;45.432;28.050;2023-08-06T00:13:56;100128.91;;;26.17;52.78
52291;BME280;39663;45.432;28.050;2023-08-06T00:14:28;100128.11;;;26.41;52.84
52291;BME280;39663;45.432;28.050;2023-08-06T00:14:59;100129.14;;;25.91;52.39
52291;BME280;39663;45.432;28.050;2023-08-06T00:15:30;100127.62;;;26.14;51.75
52291;BME280;39663;45.432;28.050;2023-08-06T00:16:10;100128.73;;;26.18;51.97
52291;BME280;39663;45.432;28.050;2023-08-06T00:16:44;100128.23;;;26.32;52.70
52291;BME280;39663;45.432;28.050;2023-08-06T00:17:15;100125.96;;;26.12;52.72
52291;BME280;39663;45.432;28.050;2023-08-06T00:17:46;100126.61;;;26.20;53.28
52291;BME280;39663;45.432;28.050;2023-08-06T00:18:18;100126.94;;;26.30;52.70
52291;BME280;39663;45.432;28.050;2023-08-06T00:18:49;100124.17;;;26.09;52.11
52291;BME280;39663;45.432;28.050;2023-08-06T00:19:21;100121.48;;;26.40;52.86
52291;BME280;39663;45.432;28.050;2023-08-06T00:19:52;100120.11;;;26.40;53.19
52291;BME280;39663;45.432;28.050;2023-08-06T00:20:24;100117.50;;;26.66;53.18
52291;BME280;39663;45.432;28.050;2023-08-06T00:20:55;100116.07;;;26.38;53.29
52291;BME280;39663;45.432;28.050;2023-08-06T00:21:27;100114.60;;;26.32;53.34
52291;BME280;39663;45.432;28.050;2023-08-06T00:21:58;100115.63;;;26.52;53.50
52291;BME280;39663;45.432;28.050;2023-08-06T00:22:30;100113.76;;;26.08;53.02
52291;BME280;39663;45.432;28.050;2023-08-06T00:23:01;100112.92;;;26.15;53.74
52291;BME280;39663;45.432;28.050;2023-08-06T00:23:33;100111.26;;;26.05;52.71
52291;BME280;39663;45.432;28.050;2023-08-06T00:24:04;100112.16;;;26.22;53.57
52291;BME280;39663;45.432;28.050;2023-08-06T00:24:35;100111.90;;;26.00;53.81
52291;BME280;39663;45.432;28.050;2023-08-06T00:25:08;100108.99;;;26.18;52.09
52291;BME280;39663;45.432;28.050;2023-08-06T00:25:39;100109.67;;;26.48;53.00
52291;BME280;39663;45.432;28.050;2023-08-06T00:26:11;100109.56;;;26.16;54.02
52291;BME280;39663;45.432;28.050;2023-08-06T00:26:42;100108.94;;;26.30;53.84
52291;BME280;39663;45.432;28.050;2023-08-06T00:27:13;100108.25;;;26.38;53.90
52291;BME280;39663;45.432;28.050;2023-08-06T00:27:45;100109.95;;;26.61;53.63
52291;BME280;39663;45.432;28.050;2023-08-06T00:28:16;100111.02;;;26.52;53.68
52291;BME280;39663;45.432;28.050;2023-08-06T00:28:48;100110.50;;;26.15;53.91
52291;BME280;39663;45.432;28.050;2023-08-06T00:29:19;100109.76;;;26.17;53.06
52291;BME280;39663;45.432;28.050;2023-08-06T00:29:51;100110.75;;;26.15;53.86
52291;BME280;39663;45.432;28.050;2023-08-06T00:30:22;100108.66;;;26.13;53.92
52291;BME280;39663;45.432;28.050;2023-08-06T00:30:54;100109.51;;;26.27;53.78
52291;BME280;39663;45.432;28.050;2023-08-06T00:31:25;100110.01;;;26.15;54.80
52291;BME280;39663;45.432;28.050;2023-08-06T00:31:57;100106.38;;;26.48;54.56
52291;BME280;39663;45.432;28.050;2023-08-06T00:32:28;100108.04;;;26.09;54.84
52291;BME280;39663;45.432;28.050;2023-08-06T00:33:00;100110.03;;;26.24;53.71
52291;BME280;39663;45.432;28.050;2023-08-06T00:33:31;100108.71;;;26.05;54.13
52291;BME280;39663;45.432;28.050;2023-08-06T00:34:02;100110.74;;;26.10;54.99
52291;BME280;39663;45.432;28.050;2023-08-06T00:34:34;100110.78;;;26.15;54.93
52291;BME280;39663;45.432;28.050;2023-08-06T00:35:06;100111.39;;;26.03;54.79
52291;BME280;39663;45.432;28.050;2023-08-06T00:35:38;100111.34;;;26.42;54.96
52291;BME280;39663;45.432;28.050;2023-08-06T00:36:09;100113.00;;;26.12;55.29
52291;BME280;39663;45.432;28.050;2023-08-06T00:36:41;100113.59;;;26.44;54.64
52291;BME280;39663;45.432;28.050;2023-08-06T00:37:12;100111.30;;;26.24;55.12
52291;BME280;39663;45.432;28.050;2023-08-06T00:37:44;100110.84;;;26.04;55.56
52291;BME280;39663;45.432;28.050;2023-08-06T00:38:16;100109.06;;;26.04;55.48
52291;BME280;39663;45.432;28.050;2023-08-06T00:38:47;100106.42;;;25.95;53.73
52291;BME280;39663;45.432;28.050;2023-08-06T00:39:19;100104.63;;;26.25;55.17
52291;BME280;39663;45.432;28.050;2023-08-06T00:39:50;100103.42;;;26.09;55.34
52291;BME280;39663;45.432;28.050;2023-08-06T00:40:22;100102.18;;;26.28;55.69
52291;BME280;39663;45.432;28.050;2023-08-06T00:40:53;100100.89;;;26.00;55.53
52291;BME280;39663;45.432;28.050;2023-08-06T00:41:25;100101.22;;;26.44;54.32
52291;BME280;39663;45.432;28.050;2023-08-06T00:41:56;100095.58;;;26.23;55.17
52291;BME280;39663;45.432;28.050;2023-08-06T00:42:28;100097.12;;;26.21;55.89
52291;BME280;39663;45.432;28.050;2023-08-06T00:42:59;100091.69;;;25.97;55.02
52291;BME280;39663;45.432;28.050;2023-08-06T00:43:31;100091.66;;;26.12;54.71
52291;BME280;39663;45.432;28.050;2023-08-06T00:44:02;100087.73;;;26.09;55.52
52291;BME280;39663;45.432;28.050;2023-08-06T00:44:34;100086.54;;;26.09;55.88
52291;BME280;39663;45.432;28.050;2023-08-06T00:45:06;100085.53;;;26.09;55.80
52291;BME280;39663;45.432;28.050;2023-08-06T00:45:38;100084.22;;;26.13;55.02
52291;BME280;39663;45.432;28.050;2023-08-06T00:46:09;100082.19;;;26.14;55.17
52291;BME280;39663;45.432;28.050;2023-08-06T00:46:42;100082.46;;;26.19;56.02
52291;BME280;39663;45.432;28.050;2023-08-06T00:47:13;100080.76;;;26.32;55.90
52291;BME280;39663;45.432;28.050;2023-08-06T00:47:45;100080.99;;;26.11;56.19
52291;BME280;39663;45.432;28.050;2023-08-06T00:48:17;100080.35;;;26.13;55.69
52291;BME280;39663;45.432;28.050;2023-08-06T00:48:49;100079.44;;;26.26;55.97
52291;BME280;39663;45.432;28.050;2023-08-06T00:49:21;100081.94;;;26.50;55.57
52291;BME280;39663;45.432;28.050;2023-08-06T00:49:53;100079.06;;;26.09;56.19
52291;BME280;39663;45.432;28.050;2023-08-06T00:50:25;100078.51;;;26.29;55.98
52291;BME280;39663;45.432;28.050;2023-08-06T00:50:56;100077.67;;;26.04;56.01
52291;BME280;39663;45.432;28.050;2023-08-06T00:51:28;100076.47;;;25.99;55.08
52291;BME280;39663;45.432;28.050;2023-08-06T00:52:00;100077.64;;;26.00;56.35
52291;BME280;39663;45.432;28.050;2023-08-06T00:52:31;100076.77;;;26.42;56.52
52291;BME280;39663;45.432;28.050;2023-08-06T00:53:03;100076.26;;;26.20;56.88
52291;BME280;39663;45.432;28.050;2023-08-06T00:53:35;100074.66;;;26.24;56.92
52291;BME280;39663;45.432;28.050;2023-08-06T00:54:06;100074.60;;;26.35;56.49
52291;BME280;39663;45.432;28.050;2023-08-06T00:54:38;100072.55;;;26.23;57.01
52291;BME280;39663;45.432;28.050;2023-08-06T00:55:10;100070.66;;;26.01;56.79
52291;BME280;39663;45.432;28.050;2023-08-06T00:55:43;100069.57;;;25.75;56.21
52291;BME280;39663;45.432;28.050;2023-08-06T00:56:15;100067.98;;;25.96;57.13
52291;BME280;39663;45.432;28.050;2023-08-06T00:56:47;100067.70;;;25.94;57.29
52291;BME280;39663;45.432;28.050;2023-08-06T00:57:19;100065.35;;;25.90;56.43
52291;BME280;39663;45.432;28.050;2023-08-06T00:57:51;100062.48;;;25.98;55.49
52291;BME280;39663;45.432;28.050;2023-08-06T00:58:23;100064.60;;;26.29;56.12
52291;BME280;39663;45.432;28.050;2023-08-06T00:58:55;100065.08;;;25.93;56.09
52291;BME280;39663;45.432;28.050;2023-08-06T00:59:26;100064.87;;;25.96;55.94
52291;BME280;39663;45.432;28.050;2023-08-06T00:59:58;100065.90;;;25.94;57.01
52291;BME280;39663;45.432;28.050;2023-08-06T01:00:30;100065.44;;;25.94;57.14
52291;BME280;39663;45.432;28.050;2023-08-06T01:01:02;100065.17;;;26.18;55.40
52291;BME280;39663;45.432;28.050;2023-08-06T01:01:33;100067.79;;;26.14;55.59
52291;BME280;39663;45.432;28.050;2023-08-06T01:02:06;100065.42;;;26.15;55.78
52291;BME280;39663;45.432;28.050;2023-08-06T01:02:38;100066.47;;;26.01;56.02
52291;BME280;39663;45.432;28.050;2023-08-06T01:03:09;100066.13;;;26.28;56.55
52291;BME280;39663;45.432;28.050;2023-08-06T01:03:41;100066.85;;;26.01;57.34
52291;BME280;39663;45.432;28.050;2023-08-06T01:04:13;100065.63;;;26.51;57.28
52291;BME280;39663;45.432;28.050;2023-08-06T01:04:44;100063.21;;;26.06;57.30
52291;BME280;39663;45.432;28.050;2023-08-06T01:05:16;100062.16;;;26.15;57.42
52291;BME280;39663;45.432;28.050;2023-08-06T01:05:47;100062.30;;;26.31;56.75
52291;BME280;39663;45.432;28.050;2023-08-06T01:06:29;100062.23;;;26.30;56.85
52291;BME280;39663;45.432;28.050;2023-08-06T01:07:19;100061.95;;;26.03;55.65
52291;BME280;39663;45.432;28.050;2023-08-06T01:08:08;100059.19;;;26.29;57.41
52291;BME280;39663;45.432;28.050;2023-08-06T01:08:49;100057.43;;;26.21;57.27
52291;BME280;39663;45.432;28.050;2023-08-06T01:09:34;100057.77;;;26.05;57.11
52291;BME280;39663;45.432;28.050;2023-08-06T01:10:21;100057.13;;;26.34;56.92
52291;BME280;39663;45.432;28.050;2023-08-06T01:11:05;100058.62;;;26.10;56.47
52291;BME280;39663;45.432;28.050;2023-08-06T01:11:50;100057.40;;;26.35;56.78
52291;BME280;39663;45.432;28.050;2023-08-06T01:12:34;100059.03;;;25.99;57.46
52291;BME280;39663;45.432;28.050;2023-08-06T01:13:16;100057.19;;;26.28;56.48
52291;BME280;39663;45.432;28.050;2023-08-06T01:13:59;100056.15;;;26.07;56.84
52291;BME280;39663;45.432;28.050;2023-08-06T01:14:47;100057.52;;;26.44;57.55
52291;BME280;39663;45.432;28.050;2023-08-06T01:15:23;100058.04;;;26.28;57.34
52291;BME280;39663;45.432;28.050;2023-08-06T01:15:56;100060.55;;;25.95;56.98
52291;BME280;39663;45.432;28.050;2023-08-06T01:16:31;100060.86;;;26.27;57.51
52291;BME280;39663;45.432;28.050;2023-08-06T01:17:05;100059.81;;;26.09;57.59
52291;BME280;39663;45.432;28.050;2023-08-06T01:17:36;100060.92;;;25.94;57.18
52291;BME280;39663;45.432;28.050;2023-08-06T01:18:09;100059.69;;;25.96;57.42
52291;BME280;39663;45.432;28.050;2023-08-06T01:18:41;100060.88;;;26.46;57.50
52291;BME280;39663;45.432;28.050;2023-08-06T01:19:16;100062.10;;;25.97;57.42
52291;BME280;39663;45.432;28.050;2023-08-06T01:19:48;100062.22;;;26.40;57.71
52291;BME280;39663;45.432;28.050;2023-08-06T01:20:19;100062.90;;;26.16;57.67
52291;BME280;39663;45.432;28.050;2023-08-06T01:20:51;100062.63;;;26.19;57.75
52291;BME280;39663;45.432;28.050;2023-08-06T01:21:22;100064.16;;;26.01;57.52
52291;BME280;39663;45.432;28.050;2023-08-06T01:21:54;100064.50;;;25.97;57.49
52291;BME280;39663;45.432;28.050;2023-08-06T01:22:26;100063.79;;;26.21;57.57
52291;BME280;39663;45.432;28.050;2023-08-06T01:22:57;100063.74;;;26.26;57.49
52291;BME280;39663;45.432;28.050;2023-08-06T01:23:29;100064.61;;;26.11;57.71
52291;BME280;39663;45.432;28.050;2023-08-06T01:24:00;100065.58;;;26.18;57.59
52291;BME280;39663;45.432;28.050;2023-08-06T01:24:32;100063.90;;;25.82;57.81
52291;BME280;39663;45.432;28.050;2023-08-06T01:25:04;100067.90;;;26.03;58.00
52291;BME280;39663;45.432;28.050;2023-08-06T01:25:43;100066.18;;;25.83;57.80
52291;BME280;39663;45.432;28.050;2023-08-06T01:26:26;100066.09;;;26.27;58.06
52291;BME280;39663;45.432;28.050;2023-08-06T01:27:06;100064.44;;;26.15;57.89
52291;BME280;39663;45.432;28.050;2023-08-06T01:27:46;100064.86;;;26.12;57.78
52291;BME280;39663;45.432;28.050;2023-08-06T01:28:25;100064.11;;;25.99;58.03
52291;BME280;39663;45.432;28.050;2023-08-06T01:29:06;100063.66;;;26.11;57.09
52291;BME280;39663;45.432;28.050;2023-08-06T01:29:44;100065.52;;;25.80;57.82
52291;BME280;39663;45.432;28.050;2023-08-06T01:30:22;100064.68;;;26.21;57.47
52291;BME280;39663;45.432;28.050;2023-08-06T01:31:00;100065.21;;;25.80;57.88
52291;BME280;39663;45.432;28.050;2023-08-06T01:31:37;100063.04;;;25.96;57.70
52291;BME280;39663;45.432;28.050;2023-08-06T01:32:10;100062.04;;;25.98;57.80
52291;BME280;39663;45.432;28.050;2023-08-06T01:32:45;100064.38;;;25.76;57.96
52291;BME280;39663;45.432;28.050;2023-08-06T01:33:20;100062.45;;;26.13;57.28
52291;BME280;39663;45.432;28.050;2023-08-06T01:33:54;100062.66;;;26.10;57.89
52291;BME280;39663;45.432;28.050;2023-08-06T01:34:31;100062.49;;;25.99;57.42
52291;BME280;39663;45.432;28.050;2023-08-06T01:35:05;100062.30;;;26.20;57.77
52291;BME280;39663;45.432;28.050;2023-08-06T01:35:37;100059.83;;;25.79;57.62
52291;BME280;39663;45.432;28.050;2023-08-06T01:36:09;100060.21;;;25.99;57.79
52291;BME280;39663;45.432;28.050;2023-08-06T01:36:42;100059.55;;;26.10;57.72
52291;BME280;39663;45.432;28.050;2023-08-06T01:37:14;100060.45;;;26.08;57.77
52291;BME280;39663;45.432;28.050;2023-08-06T01:37:46;100059.84;;;26.13;57.70
52291;BME280;39663;45.432;28.050;2023-08-06T01:38:18;100058.79;;;25.86;57.90
52291;BME280;39663;45.432;28.050;2023-08-06T01:38:51;100055.64;;;26.02;57.84
52291;BME280;39663;45.432;28.050;2023-08-06T01:39:24;100056.90;;;25.68;58.08
52291;BME280;39663;45.432;28.050;2023-08-06T01:39:55;100056.61;;;25.81;57.90
52291;BME280;39663;45.432;28.050;2023-08-06T01:40:27;100053.35;;;26.04;57.68
52291;BME280;39663;45.432;28.050;2023-08-06T01:40:59;100055.91;;;25.85;57.97
52291;BME280;39663;45.432;28.050;2023-08-06T01:41:30;100052.79;;;25.75;58.04
52291;BME280;39663;45.432;28.050;2023-08-06T01:42:02;100051.68;;;26.02;57.94
52291;BME280;39663;45.432;28.050;2023-08-06T01:42:34;100051.70;;;25.98;58.16
52291;BME280;39663;45.432;28.050;2023-08-06T01:43:05;100050.33;;;26.06;57.93
52291;BME280;39663;45.432;28.050;2023-08-06T01:43:37;100050.12;;;26.02;57.81
52291;BME280;39663;45.432;28.050;2023-08-06T01:44:08;100049.11;;;25.82;58.00
52291;BME280;39663;45.432;28.050;2023-08-06T01:44:40;100049.95;;;25.84;58.04
52291;BME280;39663;45.432;28.050;2023-08-06T01:45:12;100052.73;;;25.66;58.05
52291;BME280;39663;45.432;28.050;2023-08-06T01:45:43;100052.47;;;26.01;58.06
52291;BME280;39663;45.432;28.050;2023-08-06T01:46:15;100052.70;;;25.98;58.00
52291;BME280;39663;45.432;28.050;2023-08-06T01:46:46;100051.28;;;25.93;58.24
52291;BME280;39663;45.432;28.050;2023-08-06T01:47:18;100051.52;;;25.99;58.13
52291;BME280;39663;45.432;28.050;2023-08-06T01:47:49;100051.19;;;26.13;57.69
52291;BME280;39663;45.432;28.050;2023-08-06T01:48:21;100051.59;;;25.92;58.08
52291;BME280;39663;45.432;28.050;2023-08-06T01:48:53;100050.49;;;25.93;58.20
52291;BME280;39663;45.432;28.050;2023-08-06T01:49:24;100050.45;;;25.92;57.98
52291;BME280;39663;45.432;28.050;2023-08-06T01:49:56;100047.89;;;25.74;58.16
52291;BME280;39663;45.432;28.050;2023-08-06T01:50:27;100047.64;;;25.71;57.75
52291;BME280;39663;45.432;28.050;2023-08-06T01:50:59;100045.59;;;25.86;58.17
52291;BME280;39663;45.432;28.050;2023-08-06T01:51:30;100043.67;;;25.70;58.33
52291;BME280;39663;45.432;28.050;2023-08-06T01:52:02;100043.80;;;25.92;58.30
52291;BME280;39663;45.432;28.050;2023-08-06T01:52:33;100040.94;;;25.88;58.18
52291;BME280;39663;45.432;28.050;2023-08-06T01:53:05;100040.75;;;25.85;58.03
52291;BME280;39663;45.432;28.050;2023-08-06T01:53:36;100038.65;;;25.70;58.24
52291;BME280;39663;45.432;28.050;2023-08-06T01:54:08;100037.68;;;25.91;58.30
52291;BME280;39663;45.432;28.050;2023-08-06T01:54:39;100036.16;;;25.84;58.23
52291;BME280;39663;45.432;28.050;2023-08-06T01:55:11;100036.76;;;25.53;58.26
52291;BME280;39663;45.432;28.050;2023-08-06T01:55:47;100035.32;;;25.90;57.94
52291;BME280;39663;45.432;28.050;2023-08-06T01:56:18;100034.88;;;25.86;58.18
52291;BME280;39663;45.432;28.050;2023-08-06T01:56:50;100033.33;;;25.62;57.64
52291;BME280;39663;45.432;28.050;2023-08-06T01:57:22;100033.42;;;25.56;58.36
52291;BME280;39663;45.432;28.050;2023-08-06T01:57:53;100031.52;;;25.81;57.87
52291;BME280;39663;45.432;28.050;2023-08-06T01:58:25;100031.93;;;25.66;58.28
52291;BME280;39663;45.432;28.050;2023-08-06T01:58:56;100032.60;;;25.82;58.33
52291;BME280;39663;45.432;28.050;2023-08-06T01:59:28;100031.58;;;25.85;58.13
52291;BME280;39663;45.432;28.050;2023-08-06T01:59:59;100033.15;;;25.84;58.33
52291;BME280;39663;45.432;28.050;2023-08-06T02:00:31;100029.85;;;25.86;58.23
52291;BME280;39663;45.432;28.050;2023-08-06T02:01:03;100031.20;;;25.83;58.31
52291;BME280;39663;45.432;28.050;2023-08-06T02:01:34;100030.69;;;25.85;58.38
52291;BME280;39663;45.432;28.050;2023-08-06T02:02:06;100031.59;;;25.79;58.24
52291;BME280;39663;45.432;28.050;2023-08-06T02:02:37;100029.75;;;25.72;58.16
52291;BME280;39663;45.432;28.050;2023-08-06T02:03:09;100031.07;;;25.69;58.24
52291;BME280;39663;45.432;28.050;2023-08-06T02:03:40;100030.15;;;25.71;58.51
52291;BME280;39663;45.432;28.050;2023-08-06T02:04:12;100031.13;;;25.70;58.49
52291;BME280;39663;45.432;28.050;2023-08-06T02:04:44;100030.93;;;25.69;58.66
52291;BME280;39663;45.432;28.050;2023-08-06T02:05:15;100030.00;;;25.88;58.68
52291;BME280;39663;45.432;28.050;2023-08-06T02:05:47;100029.76;;;25.71;58.70
52291;BME280;39663;45.432;28.050;2023-08-06T02:06:18;100030.66;;;25.68;58.66
52291;BME280;39663;45.432;28.050;2023-08-06T02:06:50;100029.86;;;25.63;58.13
52291;BME280;39663;45.432;28.050;2023-08-06T02:07:21;100030.09;;;25.65;58.64
52291;BME280;39663;45.432;28.050;2023-08-06T02:07:53;100028.53;;;25.67;58.28
52291;BME280;39663;45.432;28.050;2023-08-06T02:08:24;100028.35;;;25.69;58.67
52291;BME280;39663;45.432;28.050;2023-08-06T02:08:56;100030.91;;;25.66;58.87
52291;BME280;39663;45.432;28.050;2023-08-06T02:09:28;100028.49;;;25.68;58.71
52291;BME280;39663;45.432;28.050;2023-08-06T02:09:59;100027.80;;;25.67;58.55
52291;BME280;39663;45.432;28.050;2023-08-06T02:10:31;100027.94;;;25.65;58.46
52291;BME280;39663;45.432;28.050;2023-08-06T02:11:02;100026.87;;;25.68;58.90
52291;BME280;39663;45.432;28.050;2023-08-06T02:11:34;100026.09;;;25.49;58.41
52291;BME280;39663;45.432;28.050;2023-08-06T02:12:06;100025.63;;;25.43;58.31
52291;BME280;39663;45.432;28.050;2023-08-06T02:12:38;100026.45;;;25.68;58.76
52291;BME280;39663;45.432;28.050;2023-08-06T02:13:10;100023.76;;;25.69;58.91
52291;BME280;39663;45.432;28.050;2023-08-06T02:13:41;100024.77;;;25.71;58.78
52291;BME280;39663;45.432;28.050;2023-08-06T02:14:13;100027.27;;;25.72;58.80
52291;BME280;39663;45.432;28.050;2023-08-06T02:14:45;100024.17;;;25.73;58.88
52291;BME280;39663;45.432;28.050;2023-08-06T02:15:16;100024.36;;;25.67;58.88
52291;BME280;39663;45.432;28.050;2023-08-06T02:15:48;100025.32;;;25.86;58.99
52291;BME280;39663;45.432;28.050;2023-08-06T02:16:19;100025.29;;;25.71;58.94
52291;BME280;39663;45.432;28.050;2023-08-06T02:16:51;100025.73;;;25.66;59.06
52291;BME280;39663;45.432;28.050;2023-08-06T02:17:23;100026.75;;;25.48;59.05
52291;BME280;39663;45.432;28.050;2023-08-06T02:17:54;100028.77;;;25.51;59.04
52291;BME280;39663;45.432;28.050;2023-08-06T02:18:26;100030.68;;;25.60;58.75
52291;BME280;39663;45.432;28.050;2023-08-06T02:18:58;100029.96;;;25.58;58.34
52291;BME280;39663;45.432;28.050;2023-08-06T02:19:30;100032.10;;;25.67;58.92
52291;BME280;39663;45.432;28.050;2023-08-06T02:20:01;100033.11;;;25.73;58.84
52291;BME280;39663;45.432;28.050;2023-08-06T02:20:33;100033.07;;;25.70;59.04
52291;BME280;39663;45.432;28.050;2023-08-06T02:21:05;100032.35;;;25.52;59.08
52291;BME280;39663;45.432;28.050;2023-08-06T02:21:36;100034.16;;;25.78;59.19
52291;BME280;39663;45.432;28.050;2023-08-06T02:22:08;100034.33;;;25.72;59.08
52291;BME280;39663;45.432;28.050;2023-08-06T02:22:39;100035.82;;;25.71;59.11
52291;BME280;39663;45.432;28.050;2023-08-06T02:23:11;100036.83;;;25.72;59.14
52291;BME280;39663;45.432;28.050;2023-08-06T02:23:43;100036.52;;;25.76;59.23
52291;BME280;39663;45.432;28.050;2023-08-06T02:24:14;100037.21;;;25.70;59.20
52291;BME280;39663;45.432;28.050;2023-08-06T02:24:46;100038.64;;;25.46;59.24
52291;BME280;39663;45.432;28.050;2023-08-06T02:25:17;100037.23;;;25.70;59.33
52291;BME280;39663;45.432;28.050;2023-08-06T02:25:57;100035.72;;;25.91;59.22
52291;BME280;39663;45.432;28.050;2023-08-06T02:26:28;100035.57;;;25.68;59.37
52291;BME280;39663;45.432;28.050;2023-08-06T02:27:00;100034.43;;;25.67;59.40
52291;BME280;39663;45.432;28.050;2023-08-06T02:27:32;100032.69;;;25.65;59.51
52291;BME280;39663;45.432;28.050;2023-08-06T02:28:03;100032.24;;;25.62;59.61
52291;BME280;39663;45.432;28.050;2023-08-06T02:28:35;100033.33;;;25.60;59.70
52291;BME280;39663;45.432;28.050;2023-08-06T02:29:07;100030.85;;;25.66;59.70
52291;BME280;39663;45.432;28.050;2023-08-06T02:29:40;100030.68;;;25.86;59.63
52291;BME280;39663;45.432;28.050;2023-08-06T02:30:12;100030.04;;;25.61;59.60
52291;BME280;39663;45.432;28.050;2023-08-06T02:30:50;100031.24;;;25.80;59.65
52291;BME280;39663;45.432;28.050;2023-08-06T02:31:21;100030.78;;;25.61;59.66
52291;BME280;39663;45.432;28.050;2023-08-06T02:31:53;100031.72;;;25.61;59.71
52291;BME280;39663;45.432;28.050;2023-08-06T02:32:25;100029.81;;;25.84;59.70
52291;BME280;39663;45.432;28.050;2023-08-06T02:32:56;100028.72;;;25.59;59.69
52291;BME280;39663;45.432;28.050;2023-08-06T02:33:28;100028.34;;;25.40;59.66
52291;BME280;39663;45.432;28.050;2023-08-06T02:33:59;100028.06;;;25.73;59.24
52291;BME280;39663;45.432;28.050;2023-08-06T02:34:30;100026.00;;;25.53;59.69
52291;BME280;39663;45.432;28.050;2023-08-06T02:35:02;100026.58;;;25.67;59.63
52291;BME280;39663;45.432;28.050;2023-08-06T02:35:34;100024.47;;;25.47;59.37
52291;BME280;39663;45.432;28.050;2023-08-06T02:36:05;100021.86;;;25.43;59.57
52291;BME280;39663;45.432;28.050;2023-08-06T02:36:37;100021.56;;;25.67;59.60
52291;BME280;39663;45.432;28.050;2023-08-06T02:37:08;100021.08;;;25.47;60.02
52291;BME280;39663;45.432;28.050;2023-08-06T02:37:40;100019.88;;;25.58;60.06
52291;BME280;39663;45.432;28.050;2023-08-06T02:38:11;100021.03;;;25.40;60.15
52291;BME280;39663;45.432;28.050;2023-08-06T02:38:43;100019.98;;;25.44;60.21
52291;BME280;39663;45.432;28.050;2023-08-06T02:39:14;100019.50;;;25.65;60.05
52291;BME280;39663;45.432;28.050;2023-08-06T02:39:46;100019.29;;;25.47;60.07
52291;BME280;39663;45.432;28.050;2023-08-06T02:40:18;100020.45;;;25.49;60.17
52291;BME280;39663;45.432;28.050;2023-08-06T02:40:49;100020.70;;;25.48;60.11
52291;BME280;39663;45.432;28.050;2023-08-06T02:41:21;100021.43;;;25.42;60.01
52291;BME280;39663;45.432;28.050;2023-08-06T02:41:52;100020.87;;;25.40;60.35
52291;BME280;39663;45.432;28.050;2023-08-06T02:42:24;100021.94;;;25.55;60.39
52291;BME280;39663;45.432;28.050;2023-08-06T02:42:55;100022.98;;;25.59;60.42
52291;BME280;39663;45.432;28.050;2023-08-06T02:43:27;100022.47;;;25.35;60.50
52291;BME280;39663;45.432;28.050;2023-08-06T02:43:59;100022.80;;;25.36;60.74
52291;BME280;39663;45.432;28.050;2023-08-06T02:44:30;100024.17;;;25.40;60.69
52291;BME280;39663;45.432;28.050;2023-08-06T02:45:03;100024.14;;;25.32;60.38
52291;BME280;39663;45.432;28.050;2023-08-06T02:45:35;100022.82;;;25.35;60.75
52291;BME280;39663;45.432;28.050;2023-08-06T02:46:06;100020.69;;;25.40;60.74
52291;BME280;39663;45.432;28.050;2023-08-06T02:46:38;100021.42;;;25.39;60.84
52291;BME280;39663;45.432;28.050;2023-08-06T02:47:09;100022.06;;;25.48;60.71
52291;BME280;39663;45.432;28.050;2023-08-06T02:47:41;100020.64;;;25.42;60.74
52291;BME280;39663;45.432;28.050;2023-08-06T02:48:12;100022.09;;;25.37;60.89
52291;BME280;39663;45.432;28.050;2023-08-06T02:48:44;100023.43;;;25.36;60.85
52291;BME280;39663;45.432;28.050;2023-08-06T02:49:16;100022.73;;;25.35;60.92
52291;BME280;39663;45.432;28.050;2023-08-06T02:49:47;100025.51;;;25.32;61.07
52291;BME280;39663;45.432;28.050;2023-08-06T02:50:19;100027.10;;;25.34;61.04
52291;BME280;39663;45.432;28.050;2023-08-06T02:50:51;100026.37;;;25.33;61.10
52291;BME280;39663;45.432;28.050;2023-08-06T02:51:22;100025.91;;;25.30;60.96
52291;BME280;39663;45.432;28.050;2023-08-06T02:51:54;100026.88;;;25.36;61.12
52291;BME280;39663;45.432;28.050;2023-08-06T02:52:25;100027.29;;;25.55;61.05
52291;BME280;39663;45.432;28.050;2023-08-06T02:52:57;100029.42;;;25.25;61.00
52291;BME280;39663;45.432;28.050;2023-08-06T02:53:29;100027.04;;;25.28;60.86
52291;BME280;39663;45.432;28.050;2023-08-06T02:54:00;100026.09;;;25.38;61.35
52291;BME280;39663;45.432;28.050;2023-08-06T02:54:32;100026.23;;;25.37;61.40
52291;BME280;39663;45.432;28.050;2023-08-06T02:55:04;100026.56;;;25.34;61.31